Time;durP1;ratioP1;P1;durP2;ratioP2;P2;SDS_P1;SDS_P2;PMS_P1;PMS_P2;Temp;Humidity;BMP_temperature;BMP_pressure;BME280_temperature;BME280_humidity;BME280_pressure;Samples;Min_cycle;Max_cycle;Signal;HPM_P1;HPM_P2
2023/10/15 00:00:35;;;;;;;2.17;0.47;;;;;;;-145.18;100.00;46699.47;5031473;28;20553;-63
2023/10/15 00:03:02;;;;;;;0.87;0.50;;;;;;;-145.18;100.00;46703.38;5027547;28;20263;-63
2023/10/15 00:05:28;;;;;;;3.10;0.70;;;;;;;-145.18;100.00;46697.50;5031596;28;20038;-63
2023/10/15 00:07:54;;;;;;;2.30;0.47;;;;;;;-145.18;100.00;46701.41;5024012;28;20273;-63
2023/10/15 00:10:21;;;;;;;3.43;0.60;;;;;;;-145.18;100.00;46701.41;5027633;28;20037;-63
2023/10/15 00:12:50;;;;;;;3.53;0.50;;;;;;;-145.18;100.00;46695.56;5027495;28;20105;-63
2023/10/15 00:15:19;;;;;;;3.77;0.93;;;;;;;-145.18;100.00;46695.56;5031952;28;20265;-63
2023/10/15 00:17:54;;;;;;;2.07;0.43;;;;;;;-145.18;100.00;46701.41;5027814;28;20759;-63
2023/10/15 00:20:22;;;;;;;4.00;0.53;;;;;;;-145.18;100.00;46697.50;5030791;28;20429;-64
2023/10/15 00:22:50;;;;;;;5.33;0.47;;;;;;;-145.18;100.00;46685.78;5028213;28;20777;-64
2023/10/15 00:25:19;;;;;;;2.90;0.40;;;;;;;-145.18;100.00;46685.78;5033558;28;20306;-63
2023/10/15 00:27:56;;;;;;;3.03;0.97;;;;;;;-145.18;100.00;46691.66;5035219;28;20265;-64
2023/10/15 00:30:31;;;;;;;5.03;0.70;;;;;;;-145.18;100.00;46691.66;5032375;28;20449;-63
2023/10/15 00:32:57;;;;;;;4.10;0.70;;;;;;;-145.18;100.00;46685.78;5033828;28;20832;-64
2023/10/15 00:35:25;;;;;;;5.87;0.60;;;;;;;-145.18;100.00;46681.88;5035372;28;20255;-63
2023/10/15 00:37:57;;;;;;;1.90;0.80;;;;;;;-145.18;100.00;46689.69;5033882;28;20034;-63
2023/10/15 00:40:24;;;;;;;4.60;0.57;;;;;;;-145.18;100.00;46685.78;5032040;28;20313;-63
2023/10/15 00:42:50;;;;;;;6.00;0.80;;;;;;;-145.18;100.00;46687.75;5033023;28;20297;-63
2023/10/15 00:45:19;;;;;;;8.07;0.70;;;;;;;-145.18;100.00;46685.78;5031501;28;20263;-64
2023/10/15 00:48:07;;;;;;;6.47;0.93;;;;;;;-145.18;100.00;46679.94;5033602;28;20409;-63
2023/10/15 00:50:44;;;;;;;4.57;0.60;;;;;;;-145.18;100.00;46689.69;5023197;28;20282;-64
2023/10/15 00:53:21;;;;;;;3.43;1.00;;;;;;;-145.18;100.00;46683.84;5030441;28;20743;-64
2023/10/15 00:55:52;;;;;;;3.67;0.57;;;;;;;-145.18;100.00;46679.94;5031329;28;20817;-63
2023/10/15 00:58:31;;;;;;;3.90;0.50;;;;;;;-145.18;100.00;46677.97;5031648;28;20269;-63
2023/10/15 01:01:00;;;;;;;5.73;0.57;;;;;;;-145.18;100.00;46679.94;5028068;28;20275;-63
2023/10/15 01:03:32;;;;;;;3.20;0.47;;;;;;;-145.18;100.00;46666.25;5031103;28;20773;-64
2023/10/15 01:06:02;;;;;;;1.57;0.50;;;;;;;-145.18;100.00;46676.03;5027705;28;20338;-64
2023/10/15 01:08:39;;;;;;;6.57;0.53;;;;;;;-145.18;100.00;46672.13;5031093;28;20393;-64
2023/10/15 01:11:09;;;;;;;4.37;0.63;;;;;;;-145.18;100.00;46672.13;5025237;28;20298;-64
2023/10/15 01:13:35;;;;;;;4.27;1.03;;;;;;;-145.18;100.00;46668.22;5032491;28;20269;-64
2023/10/15 01:16:03;;;;;;;4.20;0.90;;;;;;;-145.18;100.00;46662.34;5030527;28;20263;-64
2023/10/15 01:18:29;;;;;;;2.93;0.60;;;;;;;-145.18;100.00;46660.41;5034298;28;20797;-64
2023/10/15 01:20:55;;;;;;;3.83;0.60;;;;;;;-145.18;100.00;46666.25;5028904;28;20267;-64
2023/10/15 01:23:28;;;;;;;3.03;0.47;;;;;;;-145.18;100.00;46664.31;5030704;28;20029;-64
2023/10/15 01:26:00;;;;;;;5.23;0.60;;;;;;;-145.18;100.00;46658.44;5033845;28;20033;-64
2023/10/15 01:28:38;;;;;;;2.63;0.60;;;;;;;-145.18;100.00;46660.41;5029456;28;20338;-64
2023/10/15 01:31:05;;;;;;;2.13;0.50;;;;;;;-145.18;100.00;46658.44;5027149;28;20295;-66
2023/10/15 01:33:46;;;;;;;2.37;0.60;;;;;;;-145.18;100.00;46662.34;5027473;28;20738;-64
2023/10/15 01:36:27;;;;;;;3.97;0.70;;;;;;;-145.18;100.00;46664.31;5023941;28;20262;-64
2023/10/15 01:38:57;;;;;;;3.93;0.60;;;;;;;-145.18;100.00;46662.34;5025206;28;20755;-64
2023/10/15 01:41:25;;;;;;;2.97;0.43;;;;;;;-145.18;100.00;46656.50;5030518;28;20750;-64
2023/10/15 01:43:56;;;;;;;1.67;0.40;;;;;;;-145.18;100.00;46654.53;5018107;28;20274;-64
2023/10/15 01:49:07;;;;;;;2.33;0.63;;;;;;;-145.18;100.00;46658.44;5029255;28;20325;-64
2023/10/15 01:51:39;;;;;;;3.40;0.70;;;;;;;-145.18;100.00;46656.50;5027861;28;20294;-65
2023/10/15 01:54:12;;;;;;;6.80;0.90;;;;;;;-145.18;100.00;46654.53;5030761;28;20271;-64
2023/10/15 01:56:37;;;;;;;3.27;0.70;;;;;;;-145.18;100.00;46648.69;5029150;28;20262;-64
2023/10/15 01:59:09;;;;;;;3.50;0.70;;;;;;;-145.18;100.00;46650.63;5030247;28;20271;-64
2023/10/15 02:01:41;;;;;;;1.70;0.70;;;;;;;-145.18;100.00;46644.78;5021197;28;20132;-63
2023/10/15 02:04:26;;;;;;;5.47;0.80;;;;;;;-145.18;100.00;46644.78;5030425;28;20266;-63
2023/10/15 02:06:51;;;;;;;2.47;0.50;;;;;;;-145.18;100.00;46646.72;5024615;28;20353;-64
2023/10/15 02:09:21;;;;;;;1.27;0.60;;;;;;;-145.18;100.00;46646.72;5018730;28;20823;-64
2023/10/15 02:11:54;;;;;;;0.93;0.80;;;;;;;-145.18;100.00;46648.69;5027342;28;20121;-63
2023/10/15 02:14:27;;;;;;;2.77;0.80;;;;;;;-145.18;100.00;46642.81;5024919;28;20266;-63
2023/10/15 02:16:53;;;;;;;3.03;0.90;;;;;;;-145.18;100.00;46648.69;5023753;28;20263;-64
2023/10/15 02:19:34;;;;;;;3.23;0.53;;;;;;;-145.18;100.00;46646.72;5020402;28;20309;-64
2023/10/15 02:22:05;;;;;;;2.00;0.70;;;;;;;-145.18;100.00;46646.72;5030275;28;20298;-63
2023/10/15 02:24:32;;;;;;;7.00;1.47;;;;;;;-145.18;100.00;46644.78;5021995;28;20250;-64
2023/10/15 02:26:58;;;;;;;2.83;0.60;;;;;;;-145.18;100.00;46646.72;5020577;28;20260;-64
2023/10/15 02:29:32;;;;;;;4.87;0.93;;;;;;;-145.18;100.00;46646.72;5026504;28;20332;-63
2023/10/15 02:32:20;;;;;;;2.77;0.77;;;;;;;-145.18;100.00;46638.91;5027517;28;20512;-63
2023/10/15 02:34:46;;;;;;;2.30;0.60;;;;;;;-145.18;100.00;46646.72;5014379;28;20786;-64
2023/10/15 02:37:16;;;;;;;3.40;0.80;;;;;;;-145.18;100.00;46650.63;5017927;28;20030;-64
2023/10/15 02:39:49;;;;;;;2.50;0.40;;;;;;;-145.18;100.00;46642.81;5029529;28;20568;-64
2023/10/15 02:42:16;;;;;;;1.97;0.40;;;;;;;-145.18;100.00;46646.72;5029753;28;20275;-64
2023/10/15 02:44:41;;;;;;;1.07;0.93;;;;;;;-145.18;100.00;46646.72;5031611;28;20739;-64
2023/10/15 02:47:10;;;;;;;1.70;0.50;;;;;;;-145.18;100.00;46644.78;5026597;28;20259;-64
2023/10/15 02:49:49;;;;;;;4.53;1.20;;;;;;;-145.18;100.00;46646.72;5031408;28;20336;-64
2023/10/15 02:52:19;;;;;;;1.90;0.53;;;;;;;-145.18;100.00;46640.88;5027914;28;20278;-64
2023/10/15 02:54:47;;;;;;;2.80;0.63;;;;;;;-145.18;100.00;46646.72;5030155;28;20396;-64
2023/10/15 02:57:15;;;;;;;3.03;0.50;;;;;;;-145.18;100.00;46640.88;5027540;28;20258;-64
2023/10/15 02:59:51;;;;;;;3.47;0.73;;;;;;;-145.18;100.00;46638.91;5029286;28;20727;-64
2023/10/15 03:02:18;;;;;;;1.30;0.40;;;;;;;-145.18;100.00;46640.88;5025160;28;20758;-64
2023/10/15 03:04:50;;;;;;;3.90;0.60;;;;;;;-145.18;100.00;46636.94;5030168;28;20309;-64
2023/10/15 03:10:10;;;;;;;0.97;0.47;;;;;;;-145.18;100.00;46638.91;5028217;28;20263;-64
2023/10/15 03:12:35;;;;;;;0.90;0.50;;;;;;;-145.18;100.00;46636.94;5029082;28;20320;-64
2023/10/15 03:15:00;;;;;;;4.33;0.67;;;;;;;-145.18;100.00;46644.78;5029667;28;20121;-64
2023/10/15 03:17:29;;;;;;;1.60;0.53;;;;;;;-145.18;100.00;46636.94;5030172;28;20396;-64
2023/10/15 03:20:11;;;;;;;1.70;0.50;;;;;;;-145.18;100.00;46640.88;5013872;28;20516;-64
2023/10/15 03:22:38;;;;;;;0.90;0.40;;;;;;;-145.18;100.00;46638.91;5017121;28;20333;-64
2023/10/15 03:25:05;;;;;;;0.73;0.47;;;;;;;-145.18;100.00;46640.88;5018492;28;20271;-64
2023/10/15 03:27:32;;;;;;;4.07;0.63;;;;;;;-145.18;100.00;46638.91;5013941;28;20620;-64
2023/10/15 03:29:58;;;;;;;2.27;0.60;;;;;;;-145.18;100.00;46640.88;5027768;28;20442;-64
2023/10/15 03:32:37;;;;;;;3.10;0.60;;;;;;;-145.18;100.00;46640.88;5020095;28;20287;-64
2023/10/15 03:35:08;;;;;;;6.37;1.03;;;;;;;-145.18;100.00;46640.88;5013857;28;20129;-64
2023/10/15 03:37:45;;;;;;;4.97;0.67;;;;;;;-145.18;100.00;46636.94;5028444;28;20374;-63
2023/10/15 03:40:13;;;;;;;2.23;0.60;;;;;;;-145.18;100.00;46638.91;5020406;28;20263;-64
2023/10/15 03:42:40;;;;;;;4.80;0.53;;;;;;;-145.18;100.00;46640.88;5020085;28;20251;-64
2023/10/15 03:45:15;;;;;;;2.77;1.37;;;;;;;-145.18;100.00;46642.81;5019898;28;20259;-64
2023/10/15 03:47:41;;;;;;;2.53;0.52;;;;;;;-145.18;100.00;46644.78;5025845;28;20255;-64
2023/10/15 03:50:09;;;;;;;3.10;0.50;;;;;;;-145.18;100.00;46644.78;5027468;28;20044;-64
2023/10/15 03:52:34;;;;;;;0.60;0.40;;;;;;;-145.18;100.00;46644.78;5019824;28;20509;-64
2023/10/15 03:55:00;;;;;;;2.47;0.50;;;;;;;-145.18;100.00;46648.69;5028192;28;20291;-64
2023/10/15 03:57:27;;;;;;;0.57;0.30;;;;;;;-145.18;100.00;46656.50;5018588;28;20419;-64
2023/10/15 03:59:55;;;;;;;3.40;0.50;;;;;;;-145.18;100.00;46650.63;5024110;28;20030;-63
2023/10/15 04:05:14;;;;;;;2.43;0.40;;;;;;;-145.18;100.00;46656.50;5007354;28;20345;-64
2023/10/15 04:07:49;;;;;;;4.53;0.57;;;;;;;-145.18;100.00;46658.44;5025570;28;20751;-64
2023/10/15 04:10:23;;;;;;;2.55;0.47;;;;;;;-145.18;100.00;46652.59;5030866;28;20267;-64
2023/10/15 04:12:49;;;;;;;2.90;0.60;;;;;;;-145.18;100.00;46658.44;5028550;28;20029;-64
2023/10/15 04:15:16;;;;;;;2.43;0.47;;;;;;;-145.18;100.00;46656.50;5018906;28;20325;-64
2023/10/15 04:17:48;;;;;;;2.67;0.70;;;;;;;-145.18;100.00;46650.63;5020709;28;20270;-64
2023/10/15 04:20:26;;;;;;;1.60;0.70;;;;;;;-145.18;100.00;46656.50;5022818;28;20634;-64
2023/10/15 04:22:53;;;;;;;2.03;0.50;;;;;;;-145.18;100.00;46652.59;5014526;28;20727;-63
2023/10/15 04:25:25;;;;;;;3.20;0.43;;;;;;;-145.18;100.00;46652.59;5018597;28;20350;-64
2023/10/15 04:27:52;;;;;;;4.43;0.40;;;;;;;-145.18;100.00;46656.50;5014417;28;20303;-64
2023/10/15 04:30:20;;;;;;;3.17;0.60;;;;;;;-145.18;100.00;46652.59;5022485;28;20330;-64
2023/10/15 04:32:45;;;;;;;3.40;0.60;;;;;;;-145.18;100.00;46656.50;5026801;28;20281;-64
2023/10/15 04:35:25;;;;;;;3.23;0.57;;;;;;;-145.18;100.00;46660.41;5017710;28;20271;-64
2023/10/15 04:37:52;;;;;;;1.97;0.80;;;;;;;-145.18;100.00;46660.41;5019713;28;20065;-64
2023/10/15 04:40:23;;;;;;;2.17;0.53;;;;;;;-145.18;100.00;46658.44;5027181;28;20271;-64
2023/10/15 04:42:49;;;;;;;1.57;0.50;;;;;;;-145.18;100.00;46660.41;5022949;28;20740;-64
2023/10/15 04:45:23;;;;;;;1.83;0.50;;;;;;;-145.18;100.00;46654.53;5027003;28;20264;-64
2023/10/15 04:47:52;;;;;;;3.23;0.60;;;;;;;-145.18;100.00;46660.41;5023892;28;20346;-64
2023/10/15 04:50:18;;;;;;;7.20;0.53;;;;;;;-145.18;100.00;46662.34;5024866;28;20271;-64
2023/10/15 04:52:43;;;;;;;7.00;0.60;;;;;;;-145.18;100.00;46666.25;5030578;28;20765;-64
2023/10/15 04:55:11;;;;;;;1.10;0.50;;;;;;;-145.18;100.00;46664.31;5029268;28;20037;-64
2023/10/15 04:57:37;;;;;;;0.87;0.37;;;;;;;-145.18;100.00;46652.59;5031371;28;20440;-64
2023/10/15 05:00:06;;;;;;;2.73;0.50;;;;;;;-145.18;100.00;46654.53;5031962;28;20328;-64
2023/10/15 05:02:35;;;;;;;2.20;0.67;;;;;;;-145.18;100.00;46666.25;5038259;28;20034;-64
2023/10/15 05:05:00;;;;;;;2.53;0.67;;;;;;;-145.18;100.00;46658.44;5029825;28;20665;-64
2023/10/15 05:07:27;;;;;;;3.13;0.57;;;;;;;-145.18;100.00;46660.41;5032401;28;20345;-64
2023/10/15 05:09:54;;;;;;;3.60;0.60;;;;;;;-145.18;100.00;46654.53;5032636;28;20493;-64
2023/10/15 05:12:20;;;;;;;2.63;0.60;;;;;;;-145.18;100.00;46654.53;5023082;28;20295;-64
2023/10/15 05:14:49;;;;;;;1.97;0.70;;;;;;;-145.18;100.00;46656.50;5027911;28;20260;-68
2023/10/15 05:17:15;;;;;;;4.50;0.50;;;;;;;-145.18;100.00;46662.34;5026887;28;20025;-68
2023/10/15 05:19:42;;;;;;;3.03;0.60;;;;;;;-145.18;100.00;46660.41;5028813;28;20298;-67
2023/10/15 05:22:08;;;;;;;4.83;0.50;;;;;;;-145.18;100.00;46654.53;5031856;28;20255;-68
2023/10/15 05:24:34;;;;;;;1.77;0.57;;;;;;;-145.18;100.00;46658.44;5030759;28;20309;-67
2023/10/15 05:26:59;;;;;;;7.13;0.70;;;;;;;-145.18;100.00;46654.53;5023717;28;20258;-68
2023/10/15 05:29:25;;;;;;;1.10;0.53;;;;;;;-145.18;100.00;46658.44;5028471;28;20060;-68
2023/10/15 05:31:50;;;;;;;4.17;0.40;;;;;;;-145.18;100.00;46654.53;5029376;28;20057;-68
2023/10/15 05:34:16;;;;;;;2.10;0.60;;;;;;;-145.18;100.00;46652.59;5024992;28;20045;-68
2023/10/15 05:36:41;;;;;;;2.53;0.60;;;;;;;-145.18;100.00;46654.53;5023161;28;20030;-68
2023/10/15 05:39:08;;;;;;;1.53;0.60;;;;;;;-145.18;100.00;46650.63;5023489;28;20101;-68
2023/10/15 05:41:34;;;;;;;4.23;0.67;;;;;;;-145.18;100.00;46648.69;5029452;28;20032;-67
2023/10/15 05:44:01;;;;;;;3.60;0.80;;;;;;;-145.18;100.00;46646.72;5027421;28;20306;-68
2023/10/15 05:46:27;;;;;;;2.20;0.60;;;;;;;-145.18;100.00;46648.69;5024983;28;20283;-68
2023/10/15 05:48:59;;;;;;;1.57;0.60;;;;;;;-145.18;100.00;46650.63;5023586;28;20278;-67
2023/10/15 05:51:24;;;;;;;2.47;0.60;;;;;;;-145.18;100.00;46644.78;5024130;28;20057;-68
2023/10/15 05:53:50;;;;;;;4.03;0.87;;;;;;;-145.18;100.00;46646.72;5023331;28;20256;-67
2023/10/15 05:56:16;;;;;;;5.33;0.60;;;;;;;-145.18;100.00;46648.69;5021155;28;20061;-67
2023/10/15 05:58:41;;;;;;;3.70;0.73;;;;;;;-145.18;100.00;46644.78;5029559;28;20091;-67
2023/10/15 06:01:07;;;;;;;3.73;0.60;;;;;;;-145.18;100.00;46642.81;5021399;28;20030;-67
2023/10/15 06:03:33;;;;;;;1.17;0.43;;;;;;;-145.18;100.00;46644.78;5026423;28;20072;-68
2023/10/15 06:05:59;;;;;;;3.17;0.60;;;;;;;-145.18;100.00;46640.88;5017502;28;20497;-68
2023/10/15 06:08:25;;;;;;;1.53;0.60;;;;;;;-145.18;100.00;46636.94;5021462;28;20263;-67
2023/10/15 06:10:50;;;;;;;1.93;0.40;;;;;;;-145.18;100.00;46646.72;5019408;28;20029;-67
2023/10/15 06:13:16;;;;;;;3.20;0.63;;;;;;;-145.18;100.00;46642.81;5021109;28;20029;-67
2023/10/15 06:15:41;;;;;;;1.47;0.43;;;;;;;-145.18;100.00;46640.88;5015714;28;20449;-67
2023/10/15 06:18:09;;;;;;;6.23;1.17;;;;;;;-145.18;100.00;46644.78;5018480;28;21392;-67
2023/10/15 06:20:34;;;;;;;5.00;1.17;;;;;;;-145.18;100.00;46640.88;5018831;28;20017;-67
2023/10/15 06:23:03;;;;;;;5.10;0.63;;;;;;;-145.18;100.00;46638.91;5017774;28;20261;-67
2023/10/15 06:25:29;;;;;;;2.20;0.70;;;;;;;-145.18;100.00;46642.81;5014238;28;20030;-63
2023/10/15 06:27:55;;;;;;;3.23;0.80;;;;;;;-145.18;100.00;46638.91;5028468;28;20270;-63
2023/10/15 06:30:20;;;;;;;3.87;0.60;;;;;;;-145.18;100.00;46638.91;5030804;28;20072;-63
2023/10/15 06:32:48;;;;;;;5.03;0.80;;;;;;;-145.18;100.00;46638.91;5030862;28;20522;-63
2023/10/15 06:35:18;;;;;;;2.27;0.67;;;;;;;-145.18;100.00;46640.88;5050449;28;20627;-63
2023/10/15 06:37:47;;;;;;;5.60;0.60;;;;;;;-145.18;100.00;46636.94;5030817;28;20298;-64
2023/10/15 06:40:16;;;;;;;5.63;1.40;;;;;;;-145.18;100.00;46638.91;5030374;28;20274;-63
2023/10/15 06:42:42;;;;;;;4.53;1.50;;;;;;;-145.18;100.00;46635.00;5030514;28;20353;-63
2023/10/15 06:45:08;;;;;;;1.83;0.80;;;;;;;-145.18;100.00;46635.00;5030816;28;20271;-63
2023/10/15 06:47:37;;;;;;;5.03;0.60;;;;;;;-145.18;100.00;46636.94;5031015;28;20358;-63
2023/10/15 06:50:07;;;;;;;6.37;0.93;;;;;;;-145.18;100.00;46636.94;5024708;28;20270;-63
2023/10/15 06:52:38;;;;;;;7.37;1.63;;;;;;;-145.18;100.00;46635.00;5031087;28;20291;-64
2023/10/15 06:55:05;;;;;;;10.30;1.10;;;;;;;-145.18;100.00;46631.09;5024996;28;20320;-63
2023/10/15 06:57:32;;;;;;;5.23;0.90;;;;;;;-145.18;100.00;46631.09;5023064;28;20267;-63
2023/10/15 06:59:58;;;;;;;4.00;1.07;;;;;;;-145.18;100.00;46638.91;5022557;28;20282;-63
2023/10/15 07:02:23;;;;;;;5.90;0.67;;;;;;;-145.18;100.00;46640.88;5028045;28;20627;-63
2023/10/15 07:04:48;;;;;;;4.80;0.50;;;;;;;-145.18;100.00;46640.88;5023173;28;20248;-63
2023/10/15 07:07:14;;;;;;;6.43;1.00;;;;;;;-145.18;100.00;46640.88;5027684;28;20441;-63
2023/10/15 07:09:40;;;;;;;3.30;0.80;;;;;;;-145.18;100.00;46644.78;5023025;28;20041;-64
2023/10/15 07:12:06;;;;;;;1.57;0.73;;;;;;;-145.18;100.00;46648.69;5022552;28;20100;-63
2023/10/15 07:14:32;;;;;;;9.10;1.00;;;;;;;-145.18;100.00;46652.59;5024219;28;20746;-64
2023/10/15 07:16:57;;;;;;;7.77;0.87;;;;;;;-145.18;100.00;46652.59;5030774;28;20320;-63
2023/10/15 07:19:25;;;;;;;2.17;0.53;;;;;;;-145.18;100.00;46652.59;5028225;28;20494;-63
2023/10/15 07:21:52;;;;;;;2.07;0.70;;;;;;;-145.18;100.00;46654.53;5029179;28;20029;-63
2023/10/15 07:24:17;;;;;;;1.77;0.60;;;;;;;-145.18;100.00;46656.50;5025498;28;20278;-63
2023/10/15 07:26:42;;;;;;;2.70;0.53;;;;;;;-145.18;100.00;46654.53;5028314;28;20259;-63
2023/10/15 07:29:08;;;;;;;1.83;0.50;;;;;;;-145.18;100.00;46652.59;5026885;28;20517;-63
2023/10/15 07:31:33;;;;;;;3.27;0.67;;;;;;;-145.18;100.00;46654.53;5027700;28;20405;-63
2023/10/15 07:34:01;;;;;;;5.30;0.93;;;;;;;-145.18;100.00;46658.44;5025487;28;20128;-63
2023/10/15 07:36:27;;;;;;;4.20;0.80;;;;;;;-145.18;100.00;46656.50;5029455;28;20037;-63
2023/10/15 07:38:54;;;;;;;2.27;0.50;;;;;;;-145.18;100.00;46662.34;5022805;28;20263;-63
2023/10/15 07:41:20;;;;;;;1.87;0.50;;;;;;;-145.18;100.00;46658.44;5024079;28;20041;-64
2023/10/15 07:43:45;;;;;;;1.73;0.50;;;;;;;-145.18;100.00;46664.31;5027650;28;20263;-63
2023/10/15 07:46:10;;;;;;;6.33;1.00;;;;;;;-145.18;100.00;46660.41;5027223;28;20126;-64
2023/10/15 07:48:36;;;;;;;3.43;0.90;;;;;;;-145.18;100.00;46666.25;5025100;28;20037;-63
2023/10/15 07:51:01;;;;;;;4.43;0.73;;;;;;;-145.18;100.00;46658.44;5020062;28;20064;-63
2023/10/15 07:53:27;;;;;;;6.10;0.80;;;;;;;-145.18;100.00;46668.22;5018262;28;20118;-62
2023/10/15 07:55:52;;;;;;;8.03;0.80;;;;;;;-145.18;100.00;46658.44;5027899;28;20061;-62
2023/10/15 07:58:17;;;;;;;3.97;0.60;;;;;;;-145.18;100.00;46660.41;5022985;28;20030;-62
2023/10/15 08:00:43;;;;;;;3.27;0.60;;;;;;;-145.18;100.00;46656.50;5025398;28;20175;-63
2023/10/15 08:03:08;;;;;;;3.27;0.50;;;;;;;-145.18;100.00;46654.53;5025363;28;20029;-62
2023/10/15 08:05:34;;;;;;;3.80;0.60;;;;;;;-145.18;100.00;46658.44;5025350;28;20112;-62
2023/10/15 08:08:00;;;;;;;4.40;0.80;;;;;;;-145.18;100.00;46654.53;5028168;28;20044;-63
2023/10/15 08:10:31;;;;;;;3.50;0.77;;;;;;;-145.18;100.00;46656.50;5035865;28;20025;-63
2023/10/15 08:12:58;;;;;;;2.73;0.40;;;;;;;-145.18;100.00;46650.63;5036159;28;20266;-63
2023/10/15 08:15:24;;;;;;;3.03;0.50;;;;;;;-145.18;100.00;46654.53;5038845;28;20749;-63
2023/10/15 08:17:50;;;;;;;2.93;0.50;;;;;;;-145.18;100.00;46648.69;5029886;28;20282;-63
2023/10/15 08:20:15;;;;;;;8.30;1.10;;;;;;;-145.18;100.00;46650.63;5035662;28;20043;-63
2023/10/15 08:22:44;;;;;;;0.73;0.33;;;;;;;-145.18;100.00;46650.63;5036479;28;20033;-63
2023/10/15 08:25:13;;;;;;;6.07;0.80;;;;;;;-145.18;100.00;46646.72;5037408;28;20041;-63
2023/10/15 08:27:44;;;;;;;6.00;0.90;;;;;;;-145.18;100.00;46652.59;5037319;28;20271;-63
2023/10/15 08:30:12;;;;;;;8.37;1.30;;;;;;;-145.18;100.00;46646.72;5036182;28;20388;-62
2023/10/15 08:32:39;;;;;;;6.77;0.80;;;;;;;-145.18;100.00;46648.69;5036313;28;20290;-62
2023/10/15 08:35:05;;;;;;;3.97;0.67;;;;;;;-145.18;100.00;46650.63;5033718;28;20642;-63
2023/10/15 08:37:30;;;;;;;4.13;0.87;;;;;;;-145.18;100.00;46646.72;5039740;28;20270;-63
2023/10/15 08:39:56;;;;;;;6.60;1.07;;;;;;;-145.18;100.00;46652.59;5039062;28;20034;-63
2023/10/15 08:42:26;;;;;;;4.60;0.70;;;;;;;-145.18;100.00;46650.63;5040254;28;20052;-63
2023/10/15 08:44:57;;;;;;;5.20;0.50;;;;;;;-145.18;100.00;46644.78;5040382;28;20032;-63
2023/10/15 08:47:25;;;;;;;6.57;0.90;;;;;;;-145.18;100.00;46652.59;5038643;28;20270;-63
2023/10/15 08:49:52;;;;;;;2.10;0.30;;;;;;;-145.18;100.00;46656.50;5037562;28;20262;-63
2023/10/15 08:52:19;;;;;;;3.87;0.63;;;;;;;-145.18;100.00;46654.53;5038302;28;20335;-63
2023/10/15 08:54:46;;;;;;;3.63;0.77;;;;;;;-145.18;100.00;46650.63;5038070;28;20289;-63
2023/10/15 08:57:14;;;;;;;1.13;0.50;;;;;;;-145.18;100.00;46658.44;5039014;28;20309;-63
2023/10/15 08:59:41;;;;;;;1.63;0.50;;;;;;;-145.18;100.00;46660.41;5036535;28;20343;-63
2023/10/15 09:02:08;;;;;;;1.97;0.80;;;;;;;-145.18;100.00;46660.41;5037272;28;20262;-63
2023/10/15 09:04:34;;;;;;;5.50;1.10;;;;;;;-145.18;100.00;46654.53;5028202;28;20266;-63
2023/10/15 09:07:03;;;;;;;6.43;0.80;;;;;;;-145.18;100.00;46658.44;5027437;28;20319;-63
2023/10/15 09:09:32;;;;;;;4.00;1.07;;;;;;;-145.18;100.00;46654.53;5044599;28;20262;-63
2023/10/15 09:11:58;;;;;;;4.20;0.80;;;;;;;-145.18;100.00;46658.44;5028551;28;20286;-63
2023/10/15 09:14:37;;;;;;;4.40;1.07;;;;;;;-145.18;100.00;46666.25;5036405;28;20265;-63
2023/10/15 09:17:03;;;;;;;6.47;0.70;;;;;;;-145.18;100.00;46656.50;5030876;28;20320;-63
2023/10/15 09:19:31;;;;;;;5.57;0.70;;;;;;;-145.18;100.00;46654.53;5032953;28;20255;-63
2023/10/15 09:21:57;;;;;;;4.20;0.80;;;;;;;-145.18;100.00;46656.50;5034478;28;20029;-63
2023/10/15 09:24:22;;;;;;;2.97;0.60;;;;;;;-145.18;100.00;46656.50;5031183;28;20263;-63
2023/10/15 09:26:48;;;;;;;2.27;0.57;;;;;;;-145.18;100.00;46654.53;5031786;28;20025;-63
2023/10/15 09:29:19;;;;;;;8.83;0.80;;;;;;;-145.18;100.00;46656.50;5033172;28;20080;-64
2023/10/15 09:31:44;;;;;;;2.80;0.60;;;;;;;-145.18;100.00;46658.44;5029196;28;20120;-64
2023/10/15 09:34:11;;;;;;;5.40;0.70;;;;;;;-145.18;100.00;46656.50;5025248;28;20698;-63
2023/10/15 09:36:38;;;;;;;3.00;0.73;;;;;;;-145.18;100.00;46664.31;5023430;28;20029;-63
2023/10/15 09:39:13;;;;;;;4.50;0.70;;;;;;;-145.18;100.00;46656.50;5029321;28;20258;-63
2023/10/15 09:41:41;;;;;;;7.53;0.80;;;;;;;-145.18;100.00;46660.41;5030572;28;20251;-63
2023/10/15 09:44:15;;;;;;;2.53;0.67;;;;;;;-145.18;100.00;46666.25;5027767;28;20271;-63
2023/10/15 09:46:44;;;;;;;2.97;0.50;;;;;;;-145.18;100.00;46664.31;5033548;28;20346;-63
2023/10/15 09:49:12;;;;;;;8.03;1.00;;;;;;;-145.18;100.00;46668.22;5031882;28;20387;-63
2023/10/15 09:51:38;;;;;;;2.23;0.60;;;;;;;-145.18;100.00;46672.13;5033387;28;20275;-63
2023/10/15 09:54:05;;;;;;;4.27;0.77;;;;;;;-145.18;100.00;46668.22;5032870;28;20285;-67
2023/10/15 09:56:30;;;;;;;4.57;0.77;;;;;;;-145.18;100.00;46672.13;5031542;28;20108;-67
2023/10/15 09:58:56;;;;;;;2.80;0.50;;;;;;;-145.18;100.00;46674.06;5033334;28;20671;-68
2023/10/15 10:01:28;;;;;;;6.10;0.67;;;;;;;-145.18;100.00;46668.22;5026872;28;20093;-68
2023/10/15 10:04:18;;;;;;;3.83;0.70;;;;;;;-145.18;100.00;46668.22;5027526;28;20060;-67
2023/10/15 10:07:00;;;;;;;5.13;1.07;;;;;;;-145.18;100.00;46668.22;5017694;28;20366;-67
2023/10/15 10:10:21;;;;;;;3.27;0.77;;;;;;;-145.18;100.00;46666.25;5027921;28;20329;-67
2023/10/15 10:13:20;;;;;;;10.13;0.60;;;;;;;-145.18;100.00;46668.22;4998492;28;20278;-67
2023/10/15 10:15:54;;;;;;;1.40;0.40;;;;;;;-145.18;100.00;46668.22;5022278;28;20263;-67
2023/10/15 10:18:21;;;;;;;2.73;0.50;;;;;;;-145.18;100.00;46668.22;5026266;28;20262;-67
2023/10/15 10:20:48;;;;;;;7.87;1.07;;;;;;;-145.18;100.00;46666.25;5023623;28;20260;-67
2023/10/15 10:23:14;;;;;;;4.47;0.60;;;;;;;-145.18;100.00;46666.25;5026070;28;20270;-67
2023/10/15 10:25:42;;;;;;;3.50;0.53;;;;;;;-145.18;100.00;46670.16;5023864;28;20278;-67
2023/10/15 10:28:13;;;;;;;2.70;0.67;;;;;;;-145.18;100.00;46668.22;5032443;28;20308;-67
2023/10/15 10:30:50;;;;;;;3.47;0.77;;;;;;;-145.18;100.00;46670.16;5020334;28;20287;-67
2023/10/15 10:33:40;;;;;;;5.30;0.60;;;;;;;-145.18;100.00;46670.16;5020217;28;20405;-67
2023/10/15 10:36:21;;;;;;;3.87;0.80;;;;;;;-145.18;100.00;46670.16;5023663;28;20282;-67
2023/10/15 10:38:56;;;;;;;2.93;0.53;;;;;;;-145.18;100.00;46668.22;5023953;28;20324;-67
2023/10/15 10:41:35;;;;;;;1.45;0.40;;;;;;;-145.18;100.00;46676.03;5026050;28;20308;-67
2023/10/15 10:44:01;;;;;;;0.40;0.30;;;;;;;-145.18;100.00;46681.88;5021812;28;20528;-67
2023/10/15 10:46:26;;;;;;;4.77;0.43;;;;;;;-145.18;100.00;46687.75;5024044;28;20267;-67
2023/10/15 10:49:15;;;;;;;4.43;0.60;;;;;;;-145.18;100.00;46597.88;5023531;28;20030;-67
2023/10/15 10:51:41;;;;;;;1.70;0.40;;;;;;;-145.18;100.00;46582.25;5025972;28;20033;-67
2023/10/15 10:54:07;;;;;;;1.20;0.53;;;;;;;-145.18;100.00;46607.66;5029452;28;20349;-68
2023/10/15 10:56:38;;;;;;;1.93;0.47;;;;;;;-145.18;100.00;46562.72;5020507;28;20370;-68
2023/10/15 10:59:06;;;;;;;2.83;0.40;;;;;;;-145.18;100.00;46562.72;5022992;28;20079;-68
2023/10/15 11:01:42;;;;;;;5.70;0.70;;;;;;;-145.18;100.00;46564.69;5023840;28;20251;-68
2023/10/15 11:04:08;;;;;;;1.43;0.30;;;;;;;-145.18;100.00;46578.34;5023640;28;20028;-67
2023/10/15 11:06:51;;;;;;;1.70;0.53;;;;;;;-145.18;100.00;46578.34;5014317;28;20266;-68
2023/10/15 11:09:19;;;;;;;3.60;0.47;;;;;;;-145.18;100.00;46582.25;5031039;28;20496;-67
2023/10/15 11:11:49;;;;;;;4.40;0.53;;;;;;;-145.18;100.00;46572.50;5030120;28;20753;-67
2023/10/15 11:14:15;;;;;;;2.47;0.47;;;;;;;-145.18;100.00;46568.59;5032188;28;20333;-68
2023/10/15 11:16:45;;;;;;;2.47;0.60;;;;;;;-145.18;100.00;46570.53;5033262;28;20274;-67
2023/10/15 11:19:17;;;;;;;4.10;1.10;;;;;;;-145.18;100.00;46576.41;5025170;28;20334;-67
2023/10/15 11:21:43;;;;;;;4.40;0.57;;;;;;;-145.18;100.00;46574.44;5026564;28;20328;-67
2023/10/15 11:24:12;;;;;;;2.43;0.70;;;;;;;-145.18;100.00;46566.63;5026499;28;20773;-68
2023/10/15 11:26:42;;;;;;;3.50;0.50;;;;;;;-145.18;100.00;46574.44;5024429;28;20025;-69